Jolyn — PJWG — position and weather

sailwx.info

Track history (hours):
 
Tides and Currents Weather Stations Pressure Air Temp Water Temp Dewpoint Dewpoint Depression Visibility Wind Speed Wind Dir Waves Ship Positions

Jolyn

Last reported at 2017-Apr-28 20:00 UTC. Time now 2017-Apr-28 20:17 UTC.
Position N 51°22' E 002°49'.

Length 89 m; draft 4.9 m.

Type: Cargo ship. MMSI: 306813000.

Date/timePositionNaut miles runAvg speedWind from/ knotsBaromVisibWave heightAir tempDewpointWater temp
2017-Apr-28 20:00N 51°22' E 002°49'611.9
2017-Apr-28 19:31N 51°23' E 002°58'611.8
2017-Apr-28 19:01N 51°24' E 003°07'612.8
2017-Apr-28 18:31N 51°25' E 003°17'713.2
2017-Apr-28 18:01N 51°25' E 003°28'612.4
2017-Apr-28 17:30N 51°26' E 003°38'511.0
2017-Apr-28 17:01N 51°23' E 003°44'611.0
2017-Apr-28 16:29N 51°21' E 003°53'510.4
2017-Apr-28 16:00N 51°25' E 003°58'3 6.3
2017-Apr-28 15:30N 51°24' E 004°02'3 7.0
2017-Apr-28 15:00N 51°22' E 004°07'6 5.9
2017-Apr-28 14:00N 51°20' E 004°16'4 7.1
2017-Apr-28 13:31N 51°17' E 004°19'2 4.2
2017-Apr-28 13:00N 51°16' E 004°17'0 0.0
2017-Apr-28 12:30N 51°16' E 004°17'2 3.0
2017-Apr-28 12:00N 51°16' E 004°14'0 0.5
2017-Apr-28 11:27N 51°15' E 004°14'0 0.0
2017-Apr-28 10:51N 51°15' E 004°14'0 0.0
2017-Apr-28 10:30N 51°15' E 004°14'0 0.0
2017-Apr-28 10:00N 51°15' E 004°14'0 0.0
2017-Apr-28 09:24N 51°15' E 004°14'0 0.0
2017-Apr-28 08:51N 51°15' E 004°14'0 0.0
2017-Apr-28 08:30N 51°15' E 004°14'0 0.0
2017-Apr-28 08:00N 51°15' E 004°14'0 0.0
2017-Apr-28 07:30N 51°15' E 004°14'0 0.0
2017-Apr-28 07:00N 51°15' E 004°14'0 0.0
2017-Apr-28 06:30N 51°15' E 004°14'0 0.0
2017-Apr-28 06:00N 51°15' E 004°14'0 0.0
2017-Apr-28 05:24N 51°15' E 004°14'0 0.0
2017-Apr-28 05:00N 51°15' E 004°14'0 0.0
2017-Apr-28 04:30N 51°15' E 004°14'0 0.0
2017-Apr-28 03:57N 51°15' E 004°14'0 0.0
2017-Apr-28 03:30N 51°15' E 004°14'0 0.0
2017-Apr-28 02:57N 51°15' E 004°14'0 0.0
2017-Apr-28 02:30N 51°15' E 004°14'0 0.0
2017-Apr-28 01:57N 51°15' E 004°14'0 0.0
2017-Apr-28 01:27N 51°15' E 004°14'0 0.0
2017-Apr-28 01:00N 51°15' E 004°14'0 0.0
2017-Apr-28 00:30N 51°15' E 004°14'0 0.0
2017-Apr-28 00:00N 51°15' E 004°14'0 0.0
2017-Apr-27 23:24N 51°15' E 004°14'0 0.0
2017-Apr-27 23:00N 51°15' E 004°14'0 0.0
2017-Apr-27 22:30N 51°15' E 004°14'0 0.0
2017-Apr-27 21:57N 51°15' E 004°14'0 0.0
2017-Apr-27 21:27N 51°15' E 004°14'0 0.0
2017-Apr-27 21:00N 51°15' E 004°14'0 0.0
2017-Apr-27 20:30N 51°15' E 004°14'0 0.0
2017-Apr-27 19:57N 51°15' E 004°14'0 0.0
2017-Apr-27 19:30N 51°15' E 004°14'0 0.0
2017-Apr-27 19:00N 51°15' E 004°14'0 0.0
2017-Apr-27 18:30N 51°15' E 004°14'0 0.0
2017-Apr-27 18:00N 51°15' E 004°14'0 0.0
2017-Apr-27 17:30N 51°15' E 004°14'0 0.0
2017-Apr-27 17:00N 51°15' E 004°14'0 0.0
2017-Apr-27 16:30N 51°15' E 004°14'1 2.6
2017-Apr-27 16:00N 51°17' E 004°15'0 0.1
2017-Apr-27 15:30N 51°17' E 004°15'0 0.0
2017-Apr-27 15:00N 51°17' E 004°15'5 4.7
2017-Apr-27 14:00N 51°21' E 004°14'4 7.1
2017-Apr-27 13:31N 51°22' E 004°09'7 8.8
2017-Apr-27 12:42N 51°25' E 003°58'312.6
2017-Apr-27 12:28N 51°22' E 003°55'611.6
2017-Apr-27 11:57N 51°22' E 003°46'511.6
2017-Apr-27 11:30N 51°25' E 003°39'510.9
2017-Apr-27 11:00N 51°27' E 003°31'611.9
2017-Apr-27 10:30N 51°32' E 003°25'611.0
2017-Apr-27 10:00N 51°37' E 003°21'810.0
2017-Apr-27 09:12N 51°44' E 003°15'310.5
2017-Apr-27 08:54N 51°47' E 003°14'25610.0
2017-Apr-26 07:20N 55°34' E 006°35'3 9.8
2017-Apr-26 07:00N 55°36' E 006°38'5 9.9
2017-Apr-26 06:29N 55°41' E 006°43'5 9.7
2017-Apr-26 05:59N 55°45' E 006°48'5 9.5
2017-Apr-26 05:30N 55°49' E 006°52'165 9.4
2017-Apr-25 11:54N 57°46' E 010°24'4 9.1
2017-Apr-25 11:30N 57°47' E 010°30'4 8.4
2017-Apr-25 11:00N 57°47' E 010°38'4 8.5
2017-Apr-25 10:30N 57°47' E 010°46'5 9.5
2017-Apr-25 10:00N 57°42' E 010°46'510.4
2017-Apr-25 09:30N 57°37' E 010°45'610.5
2017-Apr-25 08:58N 57°32' E 010°45'510.5
2017-Apr-25 08:30N 57°27' E 010°45'510.4
2017-Apr-25 08:00N 57°22' E 010°45'126 9.1
2017-Apr-24 18:11N 55°16' E 011°04'310.8
2017-Apr-24 17:56N 55°14' E 011°06'510.8
2017-Apr-24 17:29N 55°09' E 011°04'510.8
2017-Apr-24 17:00N 55°04' E 011°03'510.7
2017-Apr-24 16:31N 54°59' E 011°01'611.2
2017-Apr-24 16:00N 54°55' E 010°55'510.9
2017-Apr-24 15:30N 54°49' E 010°53'510.7
2017-Apr-24 15:01N 54°44' E 010°53'4 8.6
2017-Apr-24 14:30N 54°41' E 010°58'9 8.9
2017-Apr-24 13:30N 54°36' E 011°11'510.0
2017-Apr-24 13:00N 54°34' E 011°19'510.0
2017-Apr-24 12:30N 54°32' E 011°27'510.0
2017-Apr-24 12:00N 54°30' E 011°35'5 9.4
2017-Apr-24 11:30N 54°28' E 011°42'4 8.3
2017-Apr-24 11:00N 54°28' E 011°49'6 4.8
2017-Apr-24 09:47N 54°27' E 011°59'3 9.3
2017-Apr-24 09:30N 54°27' E 012°04'6 8.2
2017-Apr-24 08:48N 54°30' E 012°12'3 9.7
2017-Apr-24 08:30N 54°33' E 012°13'5 9.6
2017-Apr-24 08:00N 54°37' E 012°16'5 9.6
2017-Apr-24 07:30N 54°40' E 012°23'5010.3
2017-Apr-24 02:37N 54°60' E 013°44'110.8
2017-Apr-24 02:30N 55°00' E 013°46'510.9
2017-Apr-24 02:00N 55°02' E 013°55'510.9
2017-Apr-24 01:30N 55°04' E 014°03'510.8
2017-Apr-24 01:00N 55°09' E 014°09'510.8
2017-Apr-24 00:30N 55°13' E 014°15'511.0
2017-Apr-24 00:00N 55°17' E 014°21'511.1
2017-Apr-23 23:30N 55°22' E 014°27'611.1
2017-Apr-23 23:00N 55°26' E 014°33'610.9
2017-Apr-23 22:30N 55°29' E 014°41'610.9
2017-Apr-23 21:59N 55°32' E 014°50'510.8
2017-Apr-23 21:30N 55°34' E 014°57'510.7
2017-Apr-23 21:00N 55°37' E 015°06'510.7
2017-Apr-23 20:30N 55°40' E 015°14'34510.0
2017-Apr-22 09:53N 59°37' E 023°03'410.6
2017-Apr-22 09:30N 59°38' E 023°10'510.4
2017-Apr-22 09:00N 59°39' E 023°20'510.5
2017-Apr-22 08:30N 59°41' E 023°30'510.5
2017-Apr-22 08:00N 59°42' E 023°40'510.5
2017-Apr-22 07:30N 59°43' E 023°50'510.6
2017-Apr-22 06:59N 59°45' E 024°00'510.4
2017-Apr-22 06:30N 59°46' E 024°10'5410.4
2017-Apr-22 01:20N 59°57' E 025°55'510.4
2017-Apr-22 00:53N 59°59' E 026°04'410.1
2017-Apr-22 00:30N 60°00' E 026°11'510.4
2017-Apr-22 00:00N 60°05' E 026°16'510.4
2017-Apr-21 23:30N 60°10' E 026°20'510.4
2017-Apr-21 23:00N 60°14' E 026°25'5 9.2
2017-Apr-21 22:30N 60°17' E 026°32'510.7
2017-Apr-21 22:00N 60°21' E 026°40'5 9.9
2017-Apr-21 21:30N 60°22' E 026°49'510.5
2017-Apr-21 21:00N 60°21' E 026°60'5 9.1
2017-Apr-21 20:30N 60°24' E 027°07'510.4
2017-Apr-21 20:00N 60°29' E 027°08'3 5.7
2017-Apr-21 19:30N 60°32' E 027°10'0 0.0
2017-Apr-21 13:42N 60°32' E 027°10'0 0.0
2017-Apr-21 13:30N 60°32' E 027°10'0 0.0
2017-Apr-21 13:00N 60°32' E 027°10'0 0.0
2017-Apr-21 12:29N 60°32' E 027°10'2 4.3
2017-Apr-21 11:57N 60°30' E 027°08'4 9.8
2017-Apr-21 11:30N 60°28' E 027°00'2 3.8
2017-Apr-21 10:58N 60°29' E 026°57'0 0.1
2017-Apr-21 10:28N 60°29' E 026°57'0 0.0
2017-Apr-21 09:58N 60°29' E 026°57'0 0.0
2017-Apr-21 09:28N 60°29' E 026°57'0 0.0
2017-Apr-21 08:58N 60°29' E 026°57'0 0.0
2017-Apr-21 08:28N 60°29' E 026°57'0 0.0
2017-Apr-21 07:58N 60°29' E 026°57'0 0.0
2017-Apr-21 07:28N 60°29' E 026°57'0 0.0
2017-Apr-21 06:58N 60°29' E 026°57'0 0.0
2017-Apr-21 06:28N 60°29' E 026°57'0 0.0
2017-Apr-21 05:58N 60°29' E 026°57'0 0.0
2017-Apr-21 05:28N 60°29' E 026°57'0 0.0
2017-Apr-21 04:58N 60°29' E 026°57'0 0.0
2017-Apr-21 04:28N 60°29' E 026°57'0 0.0
2017-Apr-21 03:58N 60°29' E 026°57'0 0.0
2017-Apr-21 03:25N 60°29' E 026°57'0 0.0
2017-Apr-21 02:58N 60°29' E 026°57'0 0.0
2017-Apr-21 02:28N 60°29' E 026°57'0 0.0
2017-Apr-21 01:58N 60°29' E 026°57'0 0.0
2017-Apr-21 01:28N 60°29' E 026°57'0 0.0
2017-Apr-21 00:58N 60°29' E 026°57'0 0.0
2017-Apr-21 00:28N 60°29' E 026°57'0 0.0
2017-Apr-20 23:58N 60°29' E 026°57'0 0.0
2017-Apr-20 23:28N 60°29' E 026°57'0 0.0
2017-Apr-20 22:58N 60°29' E 026°57'0 0.0
2017-Apr-20 22:28N 60°29' E 026°57'0 0.0
2017-Apr-20 21:58N 60°29' E 026°57'0 0.0
2017-Apr-20 21:28N 60°29' E 026°57'0 0.0
2017-Apr-20 20:58N 60°29' E 026°57'0 0.3
2017-Apr-20 20:30N 60°29' E 026°57'5 9.2
2017-Apr-20 20:01N 60°25' E 026°55'612.5
2017-Apr-20 19:30N 60°22' E 026°43'612.5
2017-Apr-20 19:01N 60°18' E 026°34'611.8
2017-Apr-20 18:31N 60°14' E 026°25'612.0
2017-Apr-20 18:00N 60°09' E 026°17'612.3
2017-Apr-20 17:31N 60°04' E 026°10'612.3
2017-Apr-20 17:01N 59°60' E 026°02'612.4
2017-Apr-20 16:31N 59°55' E 025°54'5612.3
2017-Apr-20 11:58N 59°40' E 024°07'612.3
2017-Apr-20 11:29N 59°39' E 023°55'612.3
2017-Apr-20 11:01N 59°37' E 023°44'612.6
2017-Apr-20 10:30N 59°35' E 023°32'612.2
2017-Apr-20 10:00N 59°33' E 023°21'177 9.4
2017-Apr-19 15:06N 59°18' E 017°34'211.7
2017-Apr-19 14:54N 59°20' E 017°31'511.9
2017-Apr-19 14:27N 59°24' E 017°26'  
Track history (hours):
 
Tides and Currents Weather Stations Pressure Air Temp Water Temp Dewpoint Dewpoint Depression Visibility Wind Speed Wind Dir Waves Ship Positions

Jolyn

Last reported at 2017-Apr-28 20:00 UTC. Time now 2017-Apr-28 20:17 UTC.
Position N 51°22' E 002°49'.

Length 89 m; draft 4.9 m.

Type: Cargo ship. MMSI: 306813000.

Date/timePositionNaut miles runAvg speedWind from/ knotsBaromVisibWave heightAir tempDewpointWater temp
2017-Apr-28 20:00N 51°22' E 002°49'611.9
2017-Apr-28 19:31N 51°23' E 002°58'611.8
2017-Apr-28 19:01N 51°24' E 003°07'612.8
2017-Apr-28 18:31N 51°25' E 003°17'713.2
2017-Apr-28 18:01N 51°25' E 003°28'612.4
2017-Apr-28 17:30N 51°26' E 003°38'511.0
2017-Apr-28 17:01N 51°23' E 003°44'611.0
2017-Apr-28 16:29N 51°21' E 003°53'510.4
2017-Apr-28 16:00N 51°25' E 003°58'3 6.3
2017-Apr-28 15:30N 51°24' E 004°02'3 7.0
2017-Apr-28 15:00N 51°22' E 004°07'6 5.9
2017-Apr-28 14:00N 51°20' E 004°16'4 7.1
2017-Apr-28 13:31N 51°17' E 004°19'2 4.2
2017-Apr-28 13:00N 51°16' E 004°17'0 0.0
2017-Apr-28 12:30N 51°16' E 004°17'2 3.0
2017-Apr-28 12:00N 51°16' E 004°14'0 0.5
2017-Apr-28 11:27N 51°15' E 004°14'0 0.0
2017-Apr-28 10:51N 51°15' E 004°14'0 0.0
2017-Apr-28 10:30N 51°15' E 004°14'0 0.0
2017-Apr-28 10:00N 51°15' E 004°14'0 0.0
2017-Apr-28 09:24N 51°15' E 004°14'0 0.0
2017-Apr-28 08:51N 51°15' E 004°14'0 0.0
2017-Apr-28 08:30N 51°15' E 004°14'0 0.0
2017-Apr-28 08:00N 51°15' E 004°14'0 0.0
2017-Apr-28 07:30N 51°15' E 004°14'0 0.0
2017-Apr-28 07:00N 51°15' E 004°14'0 0.0
2017-Apr-28 06:30N 51°15' E 004°14'0 0.0
2017-Apr-28 06:00N 51°15' E 004°14'0 0.0
2017-Apr-28 05:24N 51°15' E 004°14'0 0.0
2017-Apr-28 05:00N 51°15' E 004°14'0 0.0
2017-Apr-28 04:30N 51°15' E 004°14'0 0.0
2017-Apr-28 03:57N 51°15' E 004°14'0 0.0
2017-Apr-28 03:30N 51°15' E 004°14'0 0.0
2017-Apr-28 02:57N 51°15' E 004°14'0 0.0
2017-Apr-28 02:30N 51°15' E 004°14'0 0.0
2017-Apr-28 01:57N 51°15' E 004°14'0 0.0
2017-Apr-28 01:27N 51°15' E 004°14'0 0.0
2017-Apr-28 01:00N 51°15' E 004°14'0 0.0
2017-Apr-28 00:30N 51°15' E 004°14'0 0.0
2017-Apr-28 00:00N 51°15' E 004°14'0 0.0
2017-Apr-27 23:24N 51°15' E 004°14'0 0.0
2017-Apr-27 23:00N 51°15' E 004°14'0 0.0
2017-Apr-27 22:30N 51°15' E 004°14'0 0.0
2017-Apr-27 21:57N 51°15' E 004°14'0 0.0
2017-Apr-27 21:27N 51°15' E 004°14'0 0.0
2017-Apr-27 21:00N 51°15' E 004°14'0 0.0
2017-Apr-27 20:30N 51°15' E 004°14'0 0.0
2017-Apr-27 19:57N 51°15' E 004°14'0 0.0
2017-Apr-27 19:30N 51°15' E 004°14'0 0.0
2017-Apr-27 19:00N 51°15' E 004°14'0 0.0
2017-Apr-27 18:30N 51°15' E 004°14'0 0.0
2017-Apr-27 18:00N 51°15' E 004°14'0 0.0
2017-Apr-27 17:30N 51°15' E 004°14'0 0.0
2017-Apr-27 17:00N 51°15' E 004°14'0 0.0
2017-Apr-27 16:30N 51°15' E 004°14'1 2.6
2017-Apr-27 16:00N 51°17' E 004°15'0 0.1
2017-Apr-27 15:30N 51°17' E 004°15'0 0.0
2017-Apr-27 15:00N 51°17' E 004°15'5 4.7
2017-Apr-27 14:00N 51°21' E 004°14'4 7.1
2017-Apr-27 13:31N 51°22' E 004°09'7 8.8
2017-Apr-27 12:42N 51°25' E 003°58'312.6
2017-Apr-27 12:28N 51°22' E 003°55'611.6
2017-Apr-27 11:57N 51°22' E 003°46'511.6
2017-Apr-27 11:30N 51°25' E 003°39'510.9
2017-Apr-27 11:00N 51°27' E 003°31'611.9
2017-Apr-27 10:30N 51°32' E 003°25'611.0
2017-Apr-27 10:00N 51°37' E 003°21'810.0
2017-Apr-27 09:12N 51°44' E 003°15'310.5
2017-Apr-27 08:54N 51°47' E 003°14'25610.0
2017-Apr-26 07:20N 55°34' E 006°35'3 9.8
2017-Apr-26 07:00N 55°36' E 006°38'5 9.9
2017-Apr-26 06:29N 55°41' E 006°43'5 9.7
2017-Apr-26 05:59N 55°45' E 006°48'5 9.5
2017-Apr-26 05:30N 55°49' E 006°52'165 9.4
2017-Apr-25 11:54N 57°46' E 010°24'4 9.1
2017-Apr-25 11:30N 57°47' E 010°30'4 8.4
2017-Apr-25 11:00N 57°47' E 010°38'4 8.5
2017-Apr-25 10:30N 57°47' E 010°46'5 9.5
2017-Apr-25 10:00N 57°42' E 010°46'510.4
2017-Apr-25 09:30N 57°37' E 010°45'610.5
2017-Apr-25 08:58N 57°32' E 010°45'510.5
2017-Apr-25 08:30N 57°27' E 010°45'510.4
2017-Apr-25 08:00N 57°22' E 010°45'126 9.1
2017-Apr-24 18:11N 55°16' E 011°04'310.8
2017-Apr-24 17:56N 55°14' E 011°06'510.8
2017-Apr-24 17:29N 55°09' E 011°04'510.8
2017-Apr-24 17:00N 55°04' E 011°03'510.7
2017-Apr-24 16:31N 54°59' E 011°01'611.2
2017-Apr-24 16:00N 54°55' E 010°55'510.9
2017-Apr-24 15:30N 54°49' E 010°53'510.7
2017-Apr-24 15:01N 54°44' E 010°53'4 8.6
2017-Apr-24 14:30N 54°41' E 010°58'9 8.9
2017-Apr-24 13:30N 54°36' E 011°11'510.0
2017-Apr-24 13:00N 54°34' E 011°19'510.0
2017-Apr-24 12:30N 54°32' E 011°27'510.0
2017-Apr-24 12:00N 54°30' E 011°35'5 9.4
2017-Apr-24 11:30N 54°28' E 011°42'4 8.3
2017-Apr-24 11:00N 54°28' E 011°49'6 4.8
2017-Apr-24 09:47N 54°27' E 011°59'3 9.3
2017-Apr-24 09:30N 54°27' E 012°04'6 8.2
2017-Apr-24 08:48N 54°30' E 012°12'3 9.7
2017-Apr-24 08:30N 54°33' E 012°13'5 9.6
2017-Apr-24 08:00N 54°37' E 012°16'5 9.6
2017-Apr-24 07:30N 54°40' E 012°23'5010.3
2017-Apr-24 02:37N 54°60' E 013°44'110.8
2017-Apr-24 02:30N 55°00' E 013°46'510.9
2017-Apr-24 02:00N 55°02' E 013°55'510.9
2017-Apr-24 01:30N 55°04' E 014°03'510.8
2017-Apr-24 01:00N 55°09' E 014°09'510.8
2017-Apr-24 00:30N 55°13' E 014°15'511.0
2017-Apr-24 00:00N 55°17' E 014°21'511.1
2017-Apr-23 23:30N 55°22' E 014°27'611.1
2017-Apr-23 23:00N 55°26' E 014°33'610.9
2017-Apr-23 22:30N 55°29' E 014°41'610.9
2017-Apr-23 21:59N 55°32' E 014°50'510.8
2017-Apr-23 21:30N 55°34' E 014°57'510.7
2017-Apr-23 21:00N 55°37' E 015°06'510.7
2017-Apr-23 20:30N 55°40' E 015°14'34510.0
2017-Apr-22 09:53N 59°37' E 023°03'410.6
2017-Apr-22 09:30N 59°38' E 023°10'510.4
2017-Apr-22 09:00N 59°39' E 023°20'510.5
2017-Apr-22 08:30N 59°41' E 023°30'510.5
2017-Apr-22 08:00N 59°42' E 023°40'510.5
2017-Apr-22 07:30N 59°43' E 023°50'510.6
2017-Apr-22 06:59N 59°45' E 024°00'510.4
2017-Apr-22 06:30N 59°46' E 024°10'5410.4
2017-Apr-22 01:20N 59°57' E 025°55'510.4
2017-Apr-22 00:53N 59°59' E 026°04'410.1
2017-Apr-22 00:30N 60°00' E 026°11'510.4
2017-Apr-22 00:00N 60°05' E 026°16'510.4
2017-Apr-21 23:30N 60°10' E 026°20'510.4
2017-Apr-21 23:00N 60°14' E 026°25'5 9.2
2017-Apr-21 22:30N 60°17' E 026°32'510.7
2017-Apr-21 22:00N 60°21' E 026°40'5 9.9
2017-Apr-21 21:30N 60°22' E 026°49'510.5
2017-Apr-21 21:00N 60°21' E 026°60'5 9.1
2017-Apr-21 20:30N 60°24' E 027°07'510.4
2017-Apr-21 20:00N 60°29' E 027°08'3 5.7
2017-Apr-21 19:30N 60°32' E 027°10'0 0.0
2017-Apr-21 13:42N 60°32' E 027°10'0 0.0
2017-Apr-21 13:30N 60°32' E 027°10'0 0.0
2017-Apr-21 13:00N 60°32' E 027°10'0 0.0
2017-Apr-21 12:29N 60°32' E 027°10'2 4.3
2017-Apr-21 11:57N 60°30' E 027°08'4 9.8
2017-Apr-21 11:30N 60°28' E 027°00'2 3.8
2017-Apr-21 10:58N 60°29' E 026°57'0 0.1
2017-Apr-21 10:28N 60°29' E 026°57'0 0.0
2017-Apr-21 09:58N 60°29' E 026°57'0 0.0
2017-Apr-21 09:28N 60°29' E 026°57'0 0.0
2017-Apr-21 08:58N 60°29' E 026°57'0 0.0
2017-Apr-21 08:28N 60°29' E 026°57'0 0.0
2017-Apr-21 07:58N 60°29' E 026°57'0 0.0
2017-Apr-21 07:28N 60°29' E 026°57'0 0.0
2017-Apr-21 06:58N 60°29' E 026°57'0 0.0
2017-Apr-21 06:28N 60°29' E 026°57'0 0.0
2017-Apr-21 05:58N 60°29' E 026°57'0 0.0
2017-Apr-21 05:28N 60°29' E 026°57'0 0.0
2017-Apr-21 04:58N 60°29' E 026°57'0 0.0
2017-Apr-21 04:28N 60°29' E 026°57'0 0.0
2017-Apr-21 03:58N 60°29' E 026°57'0 0.0
2017-Apr-21 03:25N 60°29' E 026°57'0 0.0
2017-Apr-21 02:58N 60°29' E 026°57'0 0.0
2017-Apr-21 02:28N 60°29' E 026°57'0 0.0
2017-Apr-21 01:58N 60°29' E 026°57'0 0.0
2017-Apr-21 01:28N 60°29' E 026°57'0 0.0
2017-Apr-21 00:58N 60°29' E 026°57'0 0.0
2017-Apr-21 00:28N 60°29' E 026°57'0 0.0
2017-Apr-20 23:58N 60°29' E 026°57'0 0.0
2017-Apr-20 23:28N 60°29' E 026°57'0 0.0
2017-Apr-20 22:58N 60°29' E 026°57'0 0.0
2017-Apr-20 22:28N 60°29' E 026°57'0 0.0
2017-Apr-20 21:58N 60°29' E 026°57'0 0.0
2017-Apr-20 21:28N 60°29' E 026°57'0 0.0
2017-Apr-20 20:58N 60°29' E 026°57'0 0.3
2017-Apr-20 20:30N 60°29' E 026°57'5 9.2
2017-Apr-20 20:01N 60°25' E 026°55'612.5
2017-Apr-20 19:30N 60°22' E 026°43'612.5
2017-Apr-20 19:01N 60°18' E 026°34'611.8
2017-Apr-20 18:31N 60°14' E 026°25'612.0
2017-Apr-20 18:00N 60°09' E 026°17'612.3
2017-Apr-20 17:31N 60°04' E 026°10'612.3
2017-Apr-20 17:01N 59°60' E 026°02'612.4
2017-Apr-20 16:31N 59°55' E 025°54'5612.3
2017-Apr-20 11:58N 59°40' E 024°07'612.3
2017-Apr-20 11:29N 59°39' E 023°55'612.3
2017-Apr-20 11:01N 59°37' E 023°44'612.6
2017-Apr-20 10:30N 59°35' E 023°32'612.2
2017-Apr-20 10:00N 59°33' E 023°21'177 9.4
2017-Apr-19 15:06N 59°18' E 017°34'211.7
2017-Apr-19 14:54N 59°20' E 017°31'511.9
2017-Apr-19 14:27N 59°24' E 017°26'  

Dump ship's entire track history